Weather observations for the past three days for
Newport, Newport Municipal Airport
Metric (Imperial)
Date Time (cdt) Wind (kph) Vis. (km) Weather Sky Cond. Temperature (ºC) Relative Humidity Wind Chill (°C) Heat Index (°C) Pressure Precipitation (cm)
Air Dwpt 6 hour altimeter (cm) sea level (mb) 1 hr 3 hr 6 hr
Max. Min.
10 17:56 SW 13 16.09 Light Rain BKN050 OVC100 18.9 16.1 84% 76.33 1018.8 0.03
10 16:56 N 17 16.09 Mostly Cloudy BKN120 22.2 14.4 61% 76.28 1018.2
10 15:56 N 28 16.09 Fair CLR 24.4 15.6 58% 26 76.17 1016.9
10 14:56 N 15 16.09 Mostly Cloudy BKN045 BKN055 26.1 16.7 56% 27 76.23 1017.6
10 13:56 Vrbl 6 16.09 Fair CLR 26.1 17.2 58% 27 76.23 1017.5
10 12:56 E 11 16.09 Fair CLR 25 17.2 25.6 16.7 62% 26 76.25 1017.8
10 11:56 NE 9 16.09 Fair CLR 24.4 16.7 62% 25 76.28 1018.0
10 10:56 NE 6 16.09 Fair CLR 23.9 17.2 66% 25 76.28 1018.0
10 09:56 Calm 16.09 Fair CLR 22.2 16.7 71% 76.25 1017.8
10 08:56 SE 7 16.09 Fair CLR 20 16.1 78% 76.2 1017.2
10 07:56 NE 6 16.09 Fair CLR 17.8 15.6 87% 76.17 1016.8
10 06:56 SW 6 16.09 Fair CLR 16.1 14.4 17.8 15.6 90% 76.17 1016.6
10 05:56 S 7 16.09 Fair CLR 15.6 13.9 90% 76.1 1015.7
10 04:56 S 6 16.09 Fair CLR 16.1 13.3 84% 76.07 1015.3
10 03:56 SW 9 16.09 Fair CLR 17.2 12.8 76% 76.02 1014.6
10 02:56 S 6 16.09 Fair CLR 15.6 12.8 84% 75.97 1014.2
10 01:56 Calm 16.09 Fair CLR 17.2 11.7 70% 76 1014.3
10 00:56 W 6 16.09 Fair CLR 17.8 11.7 26.1 17.2 68% 76 1014.4
09 23:56 S 7 16.09 Fair CLR 17.2 12.8 76% 75.95 1013.8
09 22:56 S 9 16.09 Fair CLR 17.8 12.8 73% 75.97 1013.8
09 21:56 S 11 16.09 Fair CLR 18.3 13.3 73% 75.95 1013.6
09 20:56 S 13 16.09 Fair CLR 20 12.8 63% 75.9 1012.9
09 19:56 S 13 16.09 Fair CLR 22.2 11.7 52% 75.84 1012.5
09 18:56 S 13 16.09 A Few Clouds FEW002 26.1 10 28.9 25.6 36% 26 75.82 1011.8
09 17:56 S 11 16.09 A Few Clouds FEW002 27.2 10.6 35% 27 75.77 1011.4
09 16:56 S 6 16.09 Fair CLR 28.3 5 23% 27 75.77 1011.3
09 15:56 SE 9 16.09 Fair CLR 28.9 7.2 25% 28 75.79 1011.7
09 14:56 SE 7 16.09 Fair CLR 27.8 8.3 29% 27 75.82 1012.1
09 13:56 Calm 16.09 Fair CLR 26.7 11.7 39% 27 75.84 1012.4
09 11:56 Calm 16.09 Fair CLR 25 12.2 45% 26 75.87 1012.8
09 10:56 NW 9 16.09 Fair CLR 23.3 13.3 54% 75.87 1012.6
09 09:56 N 13 16.09 Fair CLR 22.2 14.4 61% 75.87 1012.8
09 08:56 NW 11 16.09 Fair CLR 20.6 13.9 66% 75.87 1012.7
09 07:56 NW 9 16.09 Fair CLR 17.8 13.3 75% 75.84 1012.3
09 06:56 NW 7 16.09 Fair CLR 15 12.8 16.7 14.4 87% 75.77 1011.5
09 05:56 W 9 16.09 Fair CLR 15.6 12.2 80% 75.72 1010.7
09 04:56 W 7 16.09 Fair CLR 15.6 12.8 84% 75.72 1010.6
09 03:56 SW 9 16.09 Fair CLR 16.1 12.2 78% 75.72 1010.7
09 02:56 S 15 16.09 Fair CLR 15 12.8 87% 75.74 1011.0
09 01:56 SW 7 16.09 Fair CLR 16.1 13.3 84% 75.72 1010.5
09 00:56 Calm 16.09 Fair CLR 16.7 12.8 22.2 16.7 78% 75.74 1010.8
08 23:56 S 20 16.09 Fair CLR 17.8 12.8 73% 75.69 1010.2
08 22:56 S 13 16.09 Fair CLR 17.2 13.3 78% 75.74 1011.1
08 21:56 SW 7 16.09 Fair CLR 18.3 11.7 66% 75.84 1012.2
08 20:56 S 11 16.09 Fair CLR 17.8 12.2 70% 75.74 1011.1
08 19:56 SW 9 16.09 A Few Clouds FEW001 19.4 11.1 59% 75.77 1011.3
08 18:56 S 20 16.09 Fair CLR 22.2 11.7 23.9 22.2 52% 75.74 1011.2
08 17:56 S 20 16.09 A Few Clouds FEW001 23.3 10.6 45% 75.77 1011.4
08 16:56 S 20 16.09 Fair CLR 23.9 10.6 43% 25 75.77 1011.5
08 15:56 S 19 G 30 16.09 Fair CLR 23.9 11.1 45% 25 75.82 1012.2
08 14:56 S 19 16.09 Fair CLR 23.3 10.6 45% 75.87 1012.9
08 13:56 S 20 16.09 Fair CLR 22.8 10.6 46% 75.92 1013.6
08 12:56 S 20 G 30 16.09 Fair CLR 22.2 11.1 22.2 11.7 50% 76.05 1015.0
08 11:56 S 22 16.09 Fair CLR 21.1 11.1 53% 76.12 1016.2
08 10:56 S 17 16.09 Fair CLR 20.6 11.1 55% 76.17 1017.0
08 09:56 S 19 16.09 Fair CLR 18.3 11.1 63% 76.23 1017.3
08 08:56 S 15 16.09 Fair CLR 16.7 11.1 70% 76.25 1017.9
08 07:56 S 15 16.09 Fair CLR 13.9 11.1 83% 76.25 1018.0
08 06:56 S 11 16.09 Fair CLR 11.7 10.6 12.8 10 93% 76.23 1017.6
08 05:56 S 11 16.09 Fair CLR 10 9.4 96% 9 76.2 1017.1
08 04:56 S 9 16.09 Fair CLR 10.6 9.4 92% 76.2 1017.2
08 03:56 SW 7 16.09 Fair CLR 11.7 10 89% 76.23 1017.4
08 02:56 SE 6 16.09 Fair CLR 12.2 10.6 90% 76.2 1017.2
08 00:56 S 7 16.09 Fair CLR 12.8 10.6 18.9 12.8 87% 76.25 1017.8
07 23:56 S 7 16.09 Fair CLR 13.3 11.1 87% 76.25 1017.8
07 22:56 S 9 16.09 Fair CLR 13.9 11.1 83% 76.25 1018.0
07 21:56 SE 13 16.09 Fair CLR 14.4 11.7 84% 76.23 1017.5
07 20:56 SE 13 16.09 Fair CLR 15 10.6 75% 76.2 1017.1
07 19:56 SE 9 16.09 Fair CLR 16.7 10.6 67% 76.15 1016.6
07 18:56 SE 13 14.48 Fair CLR 18.9 8.3 21.1 17.2 50% 76.15 1016.5
Date Time (cdt) Wind (kph) Vis. (km) Weather Sky Cond. Air Dwpt Max. Min. Relative Humidity Wind Chill (°C) Heat Index (°C) altimeter (cm) sea level (mb) 1 hr 3 hr 6 hr
6 hour
Temperature (ºC) Pressure Precipitation (cm)